Time;durP1;ratioP1;P1;durP2;ratioP2;P2;SDS_P1;SDS_P2;PMS_P1;PMS_P2;Temp;Humidity;BMP_temperature;BMP_pressure;BME280_temperature;BME280_humidity;BME280_pressure;Samples;Min_cycle;Max_cycle;Signal;HPM_P1;HPM_P2
2022/01/10 00:00:36;;;;;;;15.33;3.77;;;4.70;99.90;;;;;;5061302;28;20210;-51
2022/01/10 00:03:05;;;;;;;13.47;4.00;;;4.70;99.90;;;;;;5065129;28;20198;-51
2022/01/10 00:05:32;;;;;;;11.77;4.50;;;4.70;99.90;;;;;;5049451;28;23914;-52
2022/01/10 00:08:04;;;;;;;12.10;3.47;;;4.60;99.90;;;;;;5064447;28;20218;-48
2022/01/10 00:10:31;;;;;;;13.10;3.53;;;4.60;99.90;;;;;;5055963;28;20191;-53
2022/01/10 00:12:58;;;;;;;16.07;3.60;;;4.60;99.90;;;;;;5064666;28;20187;-52
2022/01/10 00:15:25;;;;;;;15.77;3.50;;;4.60;99.90;;;;;;5060918;28;20190;-55
2022/01/10 00:17:52;;;;;;;14.70;3.47;;;4.60;99.90;;;;;;5064347;28;20190;-52
2022/01/10 00:20:20;;;;;;;5.73;3.33;;;4.60;99.90;;;;;;5062293;28;20191;-53
2022/01/10 00:22:48;;;;;;;14.17;3.43;;;4.60;99.90;;;;;;5051864;28;20199;-48
2022/01/10 00:25:19;;;;;;;13.20;3.83;;;4.60;99.90;;;;;;5057683;28;20221;-52
2022/01/10 00:27:47;;;;;;;20.93;3.60;;;4.60;99.90;;;;;;5062868;28;20958;-50
2022/01/10 00:30:15;;;;;;;12.47;3.53;;;4.60;99.90;;;;;;5062825;28;20201;-50
2022/01/10 00:32:43;;;;;;;13.13;3.93;;;4.60;99.90;;;;;;5061743;28;20183;-52
2022/01/10 00:35:12;;;;;;;12.93;3.60;;;4.60;99.90;;;;;;5062383;28;20309;-55
2022/01/10 00:37:41;;;;;;;9.53;3.23;;;4.60;99.90;;;;;;5050152;28;21351;-54
2022/01/10 00:40:10;;;;;;;7.47;3.40;;;4.60;99.90;;;;;;5062515;28;20252;-51
2022/01/10 00:42:38;;;;;;;8.37;3.27;;;4.60;99.90;;;;;;5055592;28;20960;-54
2022/01/10 00:45:17;;;;;;;15.43;4.17;;;4.60;99.90;;;;;;5064171;28;20238;-50
2022/01/10 00:47:46;;;;;;;15.37;4.00;;;4.60;99.90;;;;;;5062146;28;20217;-52
2022/01/10 00:50:13;;;;;;;13.83;4.07;;;4.60;99.90;;;;;;5061512;28;20194;-54
2022/01/10 00:52:41;;;;;;;11.50;3.77;;;4.60;99.90;;;;;;5043777;28;20214;-52
2022/01/10 00:55:09;;;;;;;13.80;4.30;;;4.60;99.90;;;;;;5063496;28;20769;-54
2022/01/10 00:57:35;;;;;;;12.87;4.10;;;4.60;99.90;;;;;;5054206;28;20205;-53
2022/01/10 01:00:05;;;;;;;12.80;3.50;;;4.60;99.90;;;;;;5063810;28;20191;-50
2022/01/10 01:02:32;;;;;;;10.90;3.93;;;4.60;99.90;;;;;;5058338;28;20282;-51
2022/01/10 01:05:00;;;;;;;14.77;3.90;;;4.60;99.90;;;;;;5063941;28;20214;-52
2022/01/10 01:07:27;;;;;;;13.43;4.20;;;4.60;99.90;;;;;;5048200;28;20198;-52
2022/01/10 01:10:05;;;;;;;11.43;3.97;;;4.60;99.90;;;;;;5057632;28;20206;-54
2022/01/10 01:12:41;;;;;;;12.70;3.90;;;4.60;99.90;;;;;;5055763;28;20743;-55
2022/01/10 01:15:20;;;;;;;12.37;3.50;;;4.60;99.90;;;;;;5062065;28;20234;-51
2022/01/10 01:17:59;;;;;;;16.03;3.57;;;4.60;99.90;;;;;;5061039;28;20190;-48
2022/01/10 01:20:42;;;;;;;9.03;3.77;;;4.60;99.90;;;;;;5059904;28;20551;-52
2022/01/10 01:25:57;;;;;;;11.70;3.83;;;4.60;99.90;;;;;;5061717;28;20191;-47
2022/01/10 01:28:24;;;;;;;14.77;4.60;;;4.60;99.90;;;;;;5053978;28;20215;-54
2022/01/10 01:30:52;;;;;;;12.83;4.07;;;4.70;99.90;;;;;;5062071;28;20201;-50
2022/01/10 01:33:19;;;;;;;8.13;3.67;;;4.60;99.90;;;;;;5061162;28;20242;-53
2022/01/10 01:35:47;;;;;;;9.30;3.60;;;4.70;99.90;;;;;;5060701;28;20913;-50
2022/01/10 01:38:14;;;;;;;10.50;3.43;;;4.70;99.90;;;;;;5062214;28;20190;-54
2022/01/10 01:40:45;;;;;;;9.40;3.53;;;4.70;99.90;;;;;;5049654;28;20193;-49
2022/01/10 01:43:12;;;;;;;13.43;3.97;;;4.70;99.90;;;;;;5059938;28;20214;-51
2022/01/10 01:45:41;;;;;;;14.60;4.23;;;4.70;99.90;;;;;;5059251;28;20202;-48
2022/01/10 01:48:10;;;;;;;13.77;3.93;;;4.70;99.90;;;;;;5067168;28;20282;-52
2022/01/10 01:50:38;;;;;;;12.83;3.90;;;4.70;99.90;;;;;;5062996;28;20191;-54
2022/01/10 01:53:06;;;;;;;14.07;3.60;;;4.70;99.90;;;;;;5060109;28;20269;-52
2022/01/10 01:55:34;;;;;;;10.63;4.10;;;4.70;99.90;;;;;;5050473;28;20199;-49
2022/01/10 01:58:01;;;;;;;15.10;5.23;;;4.70;99.90;;;;;;5067094;28;20206;-51
2022/01/10 02:00:28;;;;;;;10.30;4.67;;;4.70;99.90;;;;;;5057045;28;20979;-50
2022/01/10 02:02:56;;;;;;;13.07;3.73;;;4.70;99.90;;;;;;5065707;28;20560;-48
2022/01/10 02:05:26;;;;;;;10.60;4.00;;;4.70;99.90;;;;;;5062383;28;20229;-53
2022/01/10 02:07:54;;;;;;;20.37;4.30;;;4.70;99.90;;;;;;5066858;28;20667;-49
2022/01/10 02:10:21;;;;;;;16.03;4.30;;;4.70;99.90;;;;;;5055147;28;20723;-51
2022/01/10 02:12:48;;;;;;;12.20;4.67;;;4.70;99.90;;;;;;5063751;28;20198;-50
2022/01/10 02:15:28;;;;;;;16.93;4.30;;;4.70;99.90;;;;;;5058179;28;20291;-52
2022/01/10 02:17:59;;;;;;;11.90;4.13;;;4.70;99.90;;;;;;5065457;28;20194;-50
2022/01/10 02:20:29;;;;;;;11.60;4.47;;;4.70;99.90;;;;;;5061799;28;20198;-51
2022/01/10 02:22:56;;;;;;;10.83;4.40;;;4.70;99.90;;;;;;5058112;28;20202;-50
2022/01/10 02:25:59;;;;;;;14.33;4.50;;;4.70;99.90;;;;;;5009683;28;20703;-53
2022/01/10 02:28:32;;;;;;;13.17;4.70;;;4.70;99.90;;;;;;5032286;28;21006;-50
2022/01/10 02:30:59;;;;;;;15.47;4.50;;;4.70;99.90;;;;;;5060740;28;20215;-51
2022/01/10 02:33:29;;;;;;;13.50;4.80;;;4.70;99.90;;;;;;5061339;28;20320;-54
2022/01/10 02:36:05;;;;;;;12.87;4.37;;;4.70;99.90;;;;;;5065000;28;20288;-50
2022/01/10 02:38:32;;;;;;;11.60;4.37;;;4.70;99.90;;;;;;5061097;28;20185;-50
2022/01/10 02:41:00;;;;;;;11.43;4.93;;;4.70;99.90;;;;;;5065382;28;20198;-47
2022/01/10 02:43:28;;;;;;;11.63;4.20;;;4.70;99.90;;;;;;5049731;28;20898;-52
2022/01/10 02:45:55;;;;;;;19.50;5.50;;;4.70;99.90;;;;;;5064811;28;20203;-52
2022/01/10 02:48:22;;;;;;;13.67;4.73;;;4.70;99.90;;;;;;5057094;28;20557;-50
2022/01/10 02:50:50;;;;;;;21.70;5.63;;;4.70;99.90;;;;;;5065843;28;20187;-51
2022/01/10 02:53:18;;;;;;;30.87;10.20;;;4.70;99.90;;;;;;5055530;28;20607;-52
2022/01/10 02:55:45;;;;;;;36.17;10.27;;;4.60;99.90;;;;;;5064402;28;20201;-55
2022/01/10 02:58:12;;;;;;;35.63;9.00;;;4.40;99.90;;;;;;5052643;28;20206;-50
2022/01/10 03:00:39;;;;;;;28.93;8.93;;;4.20;99.90;;;;;;5062034;28;20194;-52
2022/01/10 03:03:07;;;;;;;24.67;9.17;;;4.10;99.90;;;;;;5059891;28;20218;-55
2022/01/10 03:05:35;;;;;;;18.73;7.90;;;4.10;99.90;;;;;;5061026;28;20202;-53
2022/01/10 03:08:03;;;;;;;17.70;7.40;;;4.00;99.90;;;;;;5065832;28;20191;-49
2022/01/10 03:10:33;;;;;;;22.03;8.10;;;3.90;99.90;;;;;;5060757;28;20194;-51
2022/01/10 03:13:01;;;;;;;21.03;7.13;;;3.80;99.90;;;;;;5053215;28;20215;-50
2022/01/10 03:15:28;;;;;;;22.53;7.23;;;3.70;99.90;;;;;;5060473;28;20282;-53
2022/01/10 03:17:56;;;;;;;18.53;7.03;;;3.70;99.90;;;;;;5059292;28;20194;-53
2022/01/10 03:20:23;;;;;;;14.37;6.60;;;3.60;99.90;;;;;;5061418;28;20193;-53
2022/01/10 03:22:50;;;;;;;11.93;6.87;;;3.60;99.90;;;;;;5056567;28;20256;-53
2022/01/10 03:25:17;;;;;;;11.73;7.63;;;3.60;99.90;;;;;;5063795;28;20249;-51
2022/01/10 03:27:47;;;;;;;12.60;7.47;;;3.60;99.90;;;;;;5062565;28;20876;-51
2022/01/10 03:30:16;;;;;;;17.70;8.00;;;3.60;99.90;;;;;;5051179;28;20745;-53
2022/01/10 03:32:46;;;;;;;17.17;7.87;;;3.60;99.90;;;;;;5057651;28;20207;-51
2022/01/10 03:35:25;;;;;;;15.67;8.53;;;3.60;99.90;;;;;;5060588;28;20607;-50
2022/01/10 03:37:52;;;;;;;9.50;8.50;;;3.60;99.90;;;;;;5063910;28;20660;-48
2022/01/10 03:40:20;;;;;;;9.83;7.77;;;3.60;99.90;;;;;;5061481;28;20193;-50
2022/01/10 03:42:50;;;;;;;9.67;8.30;;;3.50;99.90;;;;;;5063427;28;20217;-49
2022/01/10 03:45:17;;;;;;;9.73;8.13;;;3.50;99.90;;;;;;5050412;28;20211;-53
2022/01/10 03:47:45;;;;;;;10.87;8.80;;;3.50;99.90;;;;;;5062241;28;20321;-47
2022/01/10 03:50:12;;;;;;;9.37;8.37;;;3.50;99.90;;;;;;5058164;28;20229;-50
2022/01/10 03:52:38;;;;;;;10.90;8.10;;;3.50;99.90;;;;;;5054982;28;20193;-49
2022/01/10 03:55:06;;;;;;;8.97;7.57;;;3.50;99.90;;;;;;5063678;28;20322;-49
2022/01/10 03:57:33;;;;;;;8.50;7.20;;;3.50;99.90;;;;;;5060854;28;20189;-53
2022/01/10 04:00:01;;;;;;;8.53;7.43;;;3.50;99.90;;;;;;5053957;28;20218;-53
2022/01/10 04:02:30;;;;;;;8.40;7.33;;;3.40;99.90;;;;;;5059395;28;20977;-51
2022/01/10 04:04:57;;;;;;;8.23;7.43;;;3.40;99.90;;;;;;5058986;28;20233;-51
2022/01/10 04:07:24;;;;;;;8.13;7.33;;;3.40;99.90;;;;;;5059270;28;20299;-50
2022/01/10 04:09:51;;;;;;;9.30;8.17;;;3.40;99.90;;;;;;5063275;28;20218;-50
2022/01/10 04:12:18;;;;;;;8.43;7.60;;;3.40;99.90;;;;;;5061105;28;20194;-53
2022/01/10 04:14:45;;;;;;;8.70;7.50;;;3.40;99.90;;;;;;5061985;28;20223;-50
2022/01/10 04:17:13;;;;;;;9.43;8.10;;;3.50;99.90;;;;;;5050855;28;20217;-52
2022/01/10 04:19:40;;;;;;;10.07;8.13;;;3.50;99.90;;;;;;5048595;28;20904;-53
2022/01/10 04:22:08;;;;;;;10.07;8.07;;;3.40;99.90;;;;;;5056814;28;20203;-51
2022/01/10 04:24:34;;;;;;;9.03;7.67;;;3.40;99.90;;;;;;5058774;28;20207;-49
2022/01/10 04:27:01;;;;;;;12.50;8.63;;;3.30;99.90;;;;;;5064106;28;20183;-49
2022/01/10 04:29:28;;;;;;;9.00;7.53;;;3.30;99.90;;;;;;5059080;28;20214;-48
2022/01/10 04:31:56;;;;;;;7.80;7.03;;;3.30;99.90;;;;;;5051732;28;20225;-48
2022/01/10 04:34:24;;;;;;;8.47;7.53;;;3.30;99.90;;;;;;5054881;28;20229;-53
2022/01/10 04:36:52;;;;;;;10.20;7.97;;;3.30;99.90;;;;;;5063967;28;20201;-50
2022/01/10 04:39:19;;;;;;;8.50;7.17;;;3.30;99.90;;;;;;5060406;28;20225;-52
2022/01/10 04:41:45;;;;;;;7.90;6.80;;;3.30;99.90;;;;;;5062734;28;20199;-50
2022/01/10 04:44:13;;;;;;;9.93;7.67;;;3.30;99.90;;;;;;5061874;28;20690;-51
2022/01/10 04:46:40;;;;;;;10.40;8.33;;;3.30;99.90;;;;;;5048584;28;20285;-47
2022/01/10 04:49:14;;;;;;;9.37;7.97;;;3.30;99.90;;;;;;5062531;28;20258;-49
2022/01/10 04:51:42;;;;;;;9.70;8.10;;;3.30;99.90;;;;;;5054447;28;20847;-51
2022/01/10 04:54:09;;;;;;;9.70;8.10;;;3.30;99.90;;;;;;5059473;28;20222;-51
2022/01/10 04:56:37;;;;;;;8.70;7.67;;;3.30;99.90;;;;;;5058853;28;20202;-48
2022/01/10 04:59:03;;;;;;;10.07;7.67;;;3.40;99.90;;;;;;5062591;28;20230;-49
2022/01/10 05:01:30;;;;;;;10.53;8.90;;;3.30;99.90;;;;;;5047116;28;20219;-51
2022/01/10 05:03:59;;;;;;;9.93;8.43;;;3.30;99.90;;;;;;5062279;28;20210;-49
2022/01/10 05:06:26;;;;;;;9.70;8.70;;;3.30;99.90;;;;;;5053381;28;20670;-48
2022/01/10 05:08:55;;;;;;;13.53;9.87;;;3.40;99.90;;;;;;5055572;28;20248;-48
2022/01/10 05:11:40;;;;;;;12.60;10.27;;;3.40;99.90;;;;;;5057470;28;20803;-53
2022/01/10 05:14:07;;;;;;;14.30;10.90;;;3.40;99.90;;;;;;5056096;28;20226;-51
2022/01/10 05:16:34;;;;;;;18.20;12.93;;;3.40;99.90;;;;;;5055568;28;20888;-54
2022/01/10 05:19:01;;;;;;;18.70;13.90;;;3.40;99.90;;;;;;5044533;28;20298;-48
2022/01/10 05:21:27;;;;;;;16.77;13.50;;;3.40;99.90;;;;;;5047574;28;20242;-48
2022/01/10 05:23:56;;;;;;;16.23;12.70;;;3.40;99.90;;;;;;5062065;28;20301;-48
2022/01/10 05:26:22;;;;;;;10.83;9.37;;;3.40;99.90;;;;;;5057490;28;20201;-51
2022/01/10 05:28:52;;;;;;;11.03;9.17;;;3.40;99.90;;;;;;5057505;28;20317;-52
2022/01/10 05:31:19;;;;;;;11.77;10.00;;;3.30;99.90;;;;;;5058395;28;20277;-54
2022/01/10 05:33:55;;;;;;;16.40;11.27;;;3.40;99.90;;;;;;5045261;28;20218;-48
2022/01/10 05:36:22;;;;;;;13.73;10.87;;;3.30;99.90;;;;;;5056073;28;20191;-52
2022/01/10 05:38:49;;;;;;;13.70;10.03;;;3.30;99.90;;;;;;5060355;28;20207;-51
2022/01/10 05:41:17;;;;;;;13.13;9.73;;;3.30;99.90;;;;;;5057520;28;20203;-53
2022/01/10 05:43:45;;;;;;;12.63;9.90;;;3.30;99.90;;;;;;5058232;28;20281;-52
2022/01/10 05:46:13;;;;;;;10.77;9.33;;;3.30;99.90;;;;;;5057226;28;20202;-53
2022/01/10 05:48:47;;;;;;;14.10;10.63;;;3.20;99.90;;;;;;5047240;28;20216;-48
2022/01/10 05:51:15;;;;;;;12.80;10.17;;;3.20;99.90;;;;;;5046045;28;20241;-52
2022/01/10 05:53:42;;;;;;;13.13;9.40;;;3.20;99.90;;;;;;5047775;28;20309;-49
2022/01/10 05:56:09;;;;;;;12.67;9.73;;;3.20;99.90;;;;;;5055829;28;20370;-50
2022/01/10 05:58:50;;;;;;;13.63;10.07;;;3.20;99.90;;;;;;5057018;28;20469;-52
2022/01/10 06:01:17;;;;;;;14.73;9.83;;;3.20;99.90;;;;;;5051170;28;20210;-51
2022/01/10 06:03:49;;;;;;;15.33;11.00;;;3.30;99.90;;;;;;5048508;28;20291;-52
2022/01/10 06:06:21;;;;;;;13.67;10.00;;;3.30;99.90;;;;;;5057578;28;20217;-53
2022/01/10 06:08:48;;;;;;;11.83;9.63;;;3.30;99.90;;;;;;5049719;28;20917;-48
2022/01/10 06:11:15;;;;;;;13.67;10.47;;;3.30;99.90;;;;;;5055592;28;20297;-47
2022/01/10 06:13:44;;;;;;;13.60;10.23;;;3.30;99.90;;;;;;5057462;28;20638;-55
2022/01/10 06:16:13;;;;;;;14.40;10.33;;;3.30;99.90;;;;;;5051775;28;20218;-47
2022/01/10 06:18:43;;;;;;;12.63;10.40;;;3.30;99.90;;;;;;5048269;28;20199;-51
2022/01/10 06:21:11;;;;;;;15.73;10.87;;;3.20;99.90;;;;;;5059873;28;20579;-52
2022/01/10 06:23:38;;;;;;;13.33;10.07;;;3.20;99.90;;;;;;5054300;28;20302;-53
2022/01/10 06:26:05;;;;;;;15.40;10.77;;;3.20;99.90;;;;;;5057007;28;20199;-48
2022/01/10 06:28:31;;;;;;;13.67;10.03;;;3.30;99.90;;;;;;5064987;28;20196;-49
2022/01/10 06:31:00;;;;;;;16.03;10.43;;;3.30;99.90;;;;;;5052212;28;20223;-52
2022/01/10 06:33:35;;;;;;;13.77;9.70;;;3.30;99.90;;;;;;5053947;28;20862;-48
2022/01/10 06:36:03;;;;;;;14.33;10.30;;;3.30;99.90;;;;;;5041926;28;20211;-51
2022/01/10 06:38:30;;;;;;;14.07;10.27;;;3.30;99.90;;;;;;5048394;28;20211;-50
2022/01/10 06:40:57;;;;;;;14.23;10.27;;;3.30;99.90;;;;;;5050702;28;20207;-52
2022/01/10 06:43:24;;;;;;;13.47;10.07;;;3.30;99.90;;;;;;5046164;28;20218;-50
2022/01/10 06:45:50;;;;;;;11.87;9.37;;;3.30;99.90;;;;;;5049336;28;20256;-49
2022/01/10 06:48:17;;;;;;;12.87;9.40;;;3.30;99.90;;;;;;5053482;28;20199;-50
2022/01/10 06:50:48;;;;;;;14.73;10.50;;;3.20;99.90;;;;;;5046846;28;20229;-49
2022/01/10 06:53:18;;;;;;;12.23;10.07;;;3.20;99.90;;;;;;5058560;28;20602;-54
2022/01/10 06:55:46;;;;;;;13.17;9.67;;;3.30;99.90;;;;;;5057666;28;20280;-48
2022/01/10 06:58:13;;;;;;;15.07;11.00;;;3.20;99.90;;;;;;5052316;28;20207;-51
2022/01/10 07:00:40;;;;;;;15.67;10.50;;;3.20;99.90;;;;;;5063205;28;20213;-49
2022/01/10 07:03:10;;;;;;;15.83;10.93;;;3.20;99.90;;;;;;5052708;28;20210;-53
2022/01/10 07:05:40;;;;;;;13.90;9.90;;;3.10;99.90;;;;;;5056496;28;20191;-48
2022/01/10 07:08:13;;;;;;;15.23;10.77;;;3.10;99.90;;;;;;5047270;28;20206;-53
2022/01/10 07:10:50;;;;;;;14.13;10.80;;;3.10;99.90;;;;;;5046533;28;20247;-55
2022/01/10 07:13:17;;;;;;;16.23;11.57;;;3.10;99.90;;;;;;5060575;28;20222;-48
2022/01/10 07:15:46;;;;;;;14.27;10.90;;;3.10;99.90;;;;;;5041950;28;20214;-48
2022/01/10 07:18:13;;;;;;;14.83;10.97;;;3.20;99.90;;;;;;5057352;28;20690;-50
2022/01/10 07:20:44;;;;;;;14.37;10.93;;;3.20;99.90;;;;;;5053580;28;20667;-51
2022/01/10 07:23:12;;;;;;;13.43;9.80;;;3.20;99.90;;;;;;5047995;28;20206;-51
2022/01/10 07:25:39;;;;;;;15.57;10.80;;;3.20;99.90;;;;;;5062474;28;20231;-52
2022/01/10 07:28:06;;;;;;;17.23;11.73;;;3.20;99.90;;;;;;5057881;28;20207;-50
2022/01/10 07:30:32;;;;;;;15.27;11.07;;;3.10;99.90;;;;;;5057357;28;20289;-53
2022/01/10 07:32:59;;;;;;;17.83;11.60;;;3.10;99.90;;;;;;5060605;28;20186;-50
2022/01/10 07:35:26;;;;;;;19.33;12.90;;;3.10;99.90;;;;;;5055504;28;20199;-53
2022/01/10 07:37:53;;;;;;;14.40;10.80;;;3.10;99.90;;;;;;5033794;28;20407;-48
2022/01/10 07:40:21;;;;;;;18.20;12.13;;;3.10;99.90;;;;;;5060623;28;20187;-51
2022/01/10 07:42:48;;;;;;;17.60;12.40;;;3.10;99.90;;;;;;5050425;28;20198;-53
2022/01/10 07:45:22;;;;;;;16.40;11.27;;;3.10;99.90;;;;;;5057710;28;20282;-52
2022/01/10 07:47:49;;;;;;;16.87;12.53;;;3.10;99.90;;;;;;5048711;28;20195;-48
2022/01/10 07:50:17;;;;;;;15.87;11.43;;;3.10;99.90;;;;;;5054450;28;20218;-48
2022/01/10 07:52:44;;;;;;;16.07;11.63;;;3.10;99.90;;;;;;5052978;28;20210;-48
2022/01/10 07:55:11;;;;;;;18.77;12.77;;;3.10;99.90;;;;;;5052483;28;20238;-50
2022/01/10 07:57:39;;;;;;;15.30;11.77;;;3.10;99.90;;;;;;5055138;28;20206;-54
2022/01/10 08:00:08;;;;;;;16.17;11.67;;;3.10;99.90;;;;;;5061814;28;20202;-48
2022/01/10 08:02:39;;;;;;;17.90;12.47;;;3.10;99.90;;;;;;5050306;28;20207;-52
2022/01/10 08:05:08;;;;;;;18.93;12.57;;;3.00;99.90;;;;;;5043868;28;20226;-51
2022/01/10 08:07:36;;;;;;;19.50;12.40;;;3.00;99.90;;;;;;5056766;28;20305;-53
2022/01/10 08:10:03;;;;;;;17.53;12.33;;;3.00;99.90;;;;;;5046326;28;20507;-51
2022/01/10 08:12:30;;;;;;;18.27;12.70;;;3.00;99.90;;;;;;5063319;28;20194;-48
2022/01/10 08:14:58;;;;;;;18.10;13.07;;;3.10;99.90;;;;;;5057480;28;20234;-53
2022/01/10 08:17:25;;;;;;;17.07;12.20;;;3.10;99.90;;;;;;5055941;28;20202;-53
2022/01/10 08:19:52;;;;;;;18.93;12.90;;;3.10;99.90;;;;;;5061156;28;20191;-52
2022/01/10 08:22:19;;;;;;;19.87;13.10;;;3.10;99.90;;;;;;5048146;28;20313;-50
2022/01/10 08:24:47;;;;;;;19.07;13.27;;;3.10;99.90;;;;;;5064648;28;20210;-50
2022/01/10 08:27:14;;;;;;;20.20;13.70;;;3.10;99.90;;;;;;5039613;28;20291;-52
2022/01/10 08:29:42;;;;;;;20.17;13.43;;;3.20;99.90;;;;;;5056859;28;20202;-51
2022/01/10 08:32:11;;;;;;;24.87;15.20;;;3.20;99.90;;;;;;5048218;28;20284;-52
2022/01/10 08:34:38;;;;;;;20.20;14.40;;;3.20;99.90;;;;;;5051965;28;20315;-51
2022/01/10 08:37:05;;;;;;;22.90;15.77;;;3.30;99.90;;;;;;5042936;28;20292;-51
2022/01/10 08:39:32;;;;;;;23.77;15.17;;;3.30;99.90;;;;;;5050338;28;20202;-50
2022/01/10 08:41:59;;;;;;;25.13;15.80;;;3.30;99.90;;;;;;5038968;28;20207;-54
2022/01/10 08:44:26;;;;;;;25.00;16.23;;;3.30;99.90;;;;;;5054947;28;20227;-48
2022/01/10 08:46:53;;;;;;;25.83;16.43;;;3.30;99.90;;;;;;5057704;28;20666;-52
2022/01/10 08:49:21;;;;;;;25.67;16.50;;;3.30;99.90;;;;;;5061833;28;20289;-52
2022/01/10 08:51:54;;;;;;;26.73;16.07;;;3.40;99.90;;;;;;5050713;28;20218;-49
2022/01/10 08:54:22;;;;;;;28.87;17.00;;;3.40;99.90;;;;;;5052859;28;20283;-47
2022/01/10 08:56:49;;;;;;;24.67;16.57;;;3.40;99.90;;;;;;5042901;28;20242;-49
2022/01/10 08:59:16;;;;;;;30.27;17.40;;;3.40;99.90;;;;;;5049185;28;20186;-48
2022/01/10 09:01:43;;;;;;;26.97;16.73;;;3.50;99.90;;;;;;5061508;28;20222;-50
2022/01/10 09:04:15;;;;;;;27.60;16.70;;;3.50;99.90;;;;;;5055795;28;20331;-47
2022/01/10 09:06:45;;;;;;;26.57;17.37;;;3.50;99.90;;;;;;5062108;28;20195;-52
2022/01/10 09:09:12;;;;;;;30.67;17.80;;;3.50;99.90;;;;;;5054087;28;20263;-48
2022/01/10 09:11:40;;;;;;;27.37;17.57;;;3.50;99.90;;;;;;5063215;28;20218;-48
2022/01/10 09:14:08;;;;;;;29.83;16.67;;;3.50;99.90;;;;;;5045789;28;20234;-50
2022/01/10 09:16:35;;;;;;;35.17;18.77;;;3.50;99.90;;;;;;5057938;28;20724;-51
2022/01/10 09:19:02;;;;;;;31.53;18.47;;;3.50;99.90;;;;;;5061116;28;20213;-51
2022/01/10 09:21:28;;;;;;;31.30;18.70;;;3.60;99.90;;;;;;5062021;28;20432;-46
2022/01/10 09:23:56;;;;;;;30.30;17.10;;;3.60;99.90;;;;;;5042928;28;20722;-46
2022/01/10 09:26:23;;;;;;;30.20;18.03;;;3.60;99.90;;;;;;5060290;28;20193;-45
2022/01/10 09:28:50;;;;;;;35.37;19.47;;;3.60;99.90;;;;;;5045543;28;20221;-43
2022/01/10 09:31:18;;;;;;;35.20;19.17;;;3.60;99.90;;;;;;5056300;28;20206;-45
2022/01/10 09:33:52;;;;;;;32.83;18.83;;;3.60;99.90;;;;;;5052660;28;20935;-43
2022/01/10 09:36:19;;;;;;;29.97;18.03;;;3.60;99.90;;;;;;5050014;28;20194;-44
2022/01/10 09:38:46;;;;;;;31.60;18.80;;;3.70;99.90;;;;;;5051047;28;20203;-43
2022/01/10 09:41:14;;;;;;;33.73;19.30;;;3.70;99.90;;;;;;5054468;28;20182;-46
2022/01/10 09:43:42;;;;;;;34.67;19.67;;;3.70;99.90;;;;;;5044387;28;20218;-44
2022/01/10 09:46:09;;;;;;;36.93;20.27;;;3.70;99.90;;;;;;5052938;28;20182;-45
2022/01/10 09:48:37;;;;;;;34.80;19.93;;;3.70;99.90;;;;;;5051888;28;20819;-44
2022/01/10 09:51:04;;;;;;;40.00;22.03;;;3.70;99.90;;;;;;5043873;28;20226;-45
2022/01/10 09:53:32;;;;;;;37.33;21.43;;;3.70;99.90;;;;;;5056677;28;20225;-43
2022/01/10 09:55:58;;;;;;;38.10;20.77;;;3.70;99.90;;;;;;5043443;28;20214;-46
2022/01/10 09:58:26;;;;;;;39.23;21.97;;;3.80;99.90;;;;;;5054708;28;20952;-45
2022/01/10 10:00:55;;;;;;;40.30;22.27;;;3.80;99.90;;;;;;5044110;28;20206;-47
2022/01/10 10:03:23;;;;;;;37.50;20.87;;;3.80;99.90;;;;;;5055265;28;20229;-45
2022/01/10 10:05:52;;;;;;;38.43;21.20;;;3.80;99.90;;;;;;5060160;28;20666;-43
2022/01/10 10:08:21;;;;;;;37.60;20.33;;;3.70;99.90;;;;;;5050093;28;20198;-43
2022/01/10 10:10:48;;;;;;;38.33;21.30;;;3.70;99.90;;;;;;5052874;28;20228;-43
2022/01/10 10:13:15;;;;;;;35.30;19.83;;;3.70;99.90;;;;;;5061829;28;20203;-46
2022/01/10 10:15:46;;;;;;;40.57;21.50;;;3.70;99.90;;;;;;5049019;28;20218;-43
2022/01/10 10:18:13;;;;;;;36.60;20.07;;;3.70;99.90;;;;;;5050233;28;20829;-44
2022/01/10 10:20:41;;;;;;;37.07;20.77;;;3.70;99.90;;;;;;5054913;28;20187;-43
2022/01/10 10:23:11;;;;;;;35.67;20.10;;;3.70;99.90;;;;;;5051037;28;20218;-42
2022/01/10 10:25:38;;;;;;;39.33;22.33;;;3.70;99.90;;;;;;5056031;28;20213;-42
2022/01/10 10:28:05;;;;;;;42.70;22.93;;;3.80;99.90;;;;;;5058751;28;20722;-45
2022/01/10 10:30:34;;;;;;;39.67;21.63;;;3.80;99.90;;;;;;5045431;28;20214;-42
2022/01/10 10:33:13;;;;;;;46.13;23.40;;;3.80;99.90;;;;;;5057308;28;20278;-47
2022/01/10 10:35:41;;;;;;;40.63;22.07;;;3.90;99.90;;;;;;5059541;28;20385;-46
2022/01/10 10:38:08;;;;;;;37.17;22.50;;;3.90;99.90;;;;;;5048350;28;20671;-45
2022/01/10 10:40:40;;;;;;;45.53;22.73;;;3.90;99.90;;;;;;5057263;28;20206;-43
2022/01/10 10:43:08;;;;;;;39.27;22.43;;;3.90;99.90;;;;;;5049494;28;20572;-47
2022/01/10 10:45:36;;;;;;;41.73;22.83;;;4.00;99.90;;;;;;5050911;28;20643;-48
2022/01/10 10:48:06;;;;;;;43.73;23.50;;;4.00;99.90;;;;;;5048727;28;20211;-48
2022/01/10 10:50:42;;;;;;;42.47;22.90;;;4.00;99.90;;;;;;5059425;28;20207;-45
2022/01/10 10:53:10;;;;;;;39.50;23.03;;;4.10;99.90;;;;;;5044447;28;20230;-45
2022/01/10 10:55:39;;;;;;;42.60;24.10;;;4.10;99.90;;;;;;5053792;28;20633;-46
2022/01/10 10:58:06;;;;;;;44.23;22.77;;;4.20;99.90;;;;;;5069093;28;20222;-46
2022/01/10 11:00:33;;;;;;;38.57;21.63;;;4.20;99.90;;;;;;5082688;28;20194;-44
2022/01/10 11:03:00;;;;;;;40.67;22.97;;;4.20;99.90;;;;;;5049575;28;20222;-45
2022/01/10 11:05:29;;;;;;;47.43;24.27;;;4.30;99.90;;;;;;5056061;28;20810;-43
2022/01/10 11:07:57;;;;;;;41.87;22.60;;;4.30;99.90;;;;;;5044623;28;20558;-44
2022/01/10 11:10:25;;;;;;;37.60;21.97;;;4.30;99.90;;;;;;5047651;28;20183;-43
2022/01/10 11:12:54;;;;;;;42.43;24.10;;;4.20;99.90;;;;;;5058789;28;20207;-48
2022/01/10 11:15:22;;;;;;;39.37;24.03;;;4.30;99.90;;;;;;5044337;28;20186;-45
2022/01/10 11:17:49;;;;;;;42.80;23.60;;;4.30;99.90;;;;;;5062931;28;20722;-50
2022/01/10 11:20:18;;;;;;;40.60;22.27;;;4.30;99.90;;;;;;5049650;28;20194;-47
2022/01/10 11:22:47;;;;;;;39.67;21.90;;;4.30;99.90;;;;;;5053512;28;20202;-46
2022/01/10 11:25:26;;;;;;;38.60;22.60;;;4.30;99.90;;;;;;5059857;28;20900;-46
2022/01/10 11:27:54;;;;;;;37.37;20.97;;;4.30;99.90;;;;;;5047876;28;20199;-47
2022/01/10 11:30:31;;;;;;;34.87;21.90;;;4.30;99.90;;;;;;5055611;28;20183;-45
2022/01/10 11:33:04;;;;;;;39.27;21.93;;;4.30;99.90;;;;;;5058721;28;20760;-47
2022/01/10 11:35:33;;;;;;;36.43;21.60;;;4.30;99.90;;;;;;5049126;28;20558;-47
2022/01/10 11:38:00;;;;;;;40.33;21.50;;;4.40;99.90;;;;;;5057006;28;20289;-47
2022/01/10 11:40:29;;;;;;;33.70;20.13;;;4.50;99.90;;;;;;5048138;28;21003;-43
2022/01/10 11:42:58;;;;;;;34.70;20.80;;;4.50;99.90;;;;;;5045298;28;20202;-44
2022/01/10 11:45:25;;;;;;;37.37;20.30;;;4.40;99.90;;;;;;5056890;28;20206;-45
2022/01/10 11:48:16;;;;;;;31.20;19.07;;;4.40;99.90;;;;;;5060860;28;20286;-44
2022/01/10 11:50:46;;;;;;;35.10;20.27;;;4.40;99.90;;;;;;5051185;28;20719;-43
2022/01/10 11:53:16;;;;;;;32.10;18.50;;;4.40;99.90;;;;;;5053133;28;20959;-44
2022/01/10 11:55:54;;;;;;;34.87;19.83;;;4.40;99.90;;;;;;5053854;28;20199;-47
2022/01/10 11:58:23;;;;;;;32.87;19.00;;;4.40;99.90;;;;;;5051897;28;20182;-44
2022/01/10 12:00:52;;;;;;;29.50;18.40;;;4.40;99.90;;;;;;5048111;28;20204;-45
2022/01/10 12:03:20;;;;;;;30.23;18.10;;;4.40;99.90;;;;;;5061333;28;20268;-45
2022/01/10 12:05:48;;;;;;;30.63;18.00;;;4.40;99.90;;;;;;5045443;28;20297;-43
2022/01/10 12:08:16;;;;;;;31.90;18.00;;;4.40;99.90;;;;;;5055079;28;20213;-45
2022/01/10 12:10:44;;;;;;;28.43;16.93;;;4.40;99.90;;;;;;5059968;28;20192;-46
2022/01/10 12:13:14;;;;;;;29.77;17.60;;;4.40;99.90;;;;;;5041866;28;20330;-44
2022/01/10 12:15:41;;;;;;;32.60;19.00;;;4.40;99.90;;;;;;5045169;28;20656;-45
2022/01/10 12:18:09;;;;;;;30.23;17.80;;;4.40;99.90;;;;;;5052414;28;20216;-44
2022/01/10 12:20:35;;;;;;;32.20;18.20;;;4.30;99.90;;;;;;5041919;28;20576;-47
2022/01/10 12:23:03;;;;;;;30.87;18.63;;;4.30;99.90;;;;;;5057641;28;20191;-43
2022/01/10 12:25:30;;;;;;;30.23;19.87;;;4.30;99.90;;;;;;5060151;28;20210;-45
2022/01/10 12:28:00;;;;;;;31.43;18.93;;;4.30;99.90;;;;;;5060157;28;20186;-44
2022/01/10 12:30:30;;;;;;;31.30;19.30;;;4.30;99.90;;;;;;5060432;28;20273;-43
2022/01/10 12:32:57;;;;;;;34.23;19.80;;;4.30;99.90;;;;;;5047672;28;20211;-44
2022/01/10 12:35:24;;;;;;;38.10;20.13;;;4.30;99.90;;;;;;5042933;28;20195;-43
2022/01/10 12:37:55;;;;;;;43.13;22.57;;;4.30;99.90;;;;;;5047450;28;20215;-45
2022/01/10 12:40:23;;;;;;;40.37;21.43;;;4.30;99.90;;;;;;5055225;28;20222;-45
2022/01/10 12:42:53;;;;;;;35.10;19.40;;;4.30;99.90;;;;;;5047949;28;20202;-47
2022/01/10 12:45:20;;;;;;;32.90;19.23;;;4.30;99.90;;;;;;5041392;28;20223;-46
2022/01/10 12:47:48;;;;;;;32.43;20.10;;;4.30;99.90;;;;;;5048090;28;20214;-43
2022/01/10 12:50:16;;;;;;;34.70;19.90;;;4.20;99.90;;;;;;5058811;28;20183;-43
2022/01/10 12:52:43;;;;;;;31.47;19.43;;;4.30;99.90;;;;;;5047847;28;20263;-46